createdAt,value
2022-09-18T00:01:27.945Z,2.85
2022-09-18T00:04:30.955Z,2.88
2022-09-18T00:07:33.425Z,3.00
2022-09-18T00:10:41.111Z,3.10
2022-09-18T00:13:43.813Z,2.20
2022-09-18T00:16:46.152Z,2.50
2022-09-18T00:19:48.073Z,2.25
2022-09-18T00:22:49.739Z,2.22
2022-09-18T00:25:51.494Z,2.03
2022-09-18T00:28:54.809Z,1.90
2022-09-18T00:31:56.534Z,1.92
2022-09-18T00:34:58.216Z,2.20
2022-09-18T00:37:59.885Z,1.70
2022-09-18T00:41:03.677Z,2.08
2022-09-18T00:44:38.135Z,1.95
2022-09-18T00:47:48.778Z,2.00
2022-09-18T00:50:51.242Z,1.80
2022-09-18T00:54:12.242Z,1.20
2022-09-18T00:57:21.010Z,1.85
2022-09-18T01:00:23.230Z,1.92
2022-09-18T01:03:25.052Z,1.30
2022-09-18T01:06:43.781Z,1.33
2022-09-18T01:09:48.350Z,0.93
2022-09-18T01:13:04.944Z,1.25
2022-09-18T01:16:16.745Z,1.20
2022-09-18T01:19:24.957Z,1.40
2022-09-18T01:23:08.176Z,1.23
2022-09-18T01:26:28.503Z,1.83
2022-09-18T01:29:59.551Z,1.65
2022-09-18T01:33:10.013Z,1.75
2022-09-18T01:36:16.018Z,2.03
2022-09-18T01:39:34.513Z,1.38
2022-09-18T01:42:38.090Z,1.50
2022-09-18T01:45:53.276Z,1.70
2022-09-18T01:49:09.902Z,1.83
2022-09-18T01:52:20.712Z,1.95
2022-09-18T01:55:28.403Z,1.67
2022-09-18T01:58:34.493Z,1.73
2022-09-18T02:01:38.823Z,1.60
2022-09-18T02:04:44.159Z,1.33
2022-09-18T02:08:30.349Z,1.23
2022-09-18T02:11:34.508Z,1.40
2022-09-18T02:14:47.081Z,1.60
2022-09-18T02:18:02.230Z,1.67
2022-09-18T02:21:10.420Z,1.30
2022-09-18T02:24:14.702Z,1.80
2022-09-18T02:27:17.445Z,1.95
2022-09-18T02:30:19.332Z,1.33
2022-09-18T02:33:29.511Z,1.52
2022-09-18T02:36:55.508Z,1.73
2022-09-18T02:40:22.081Z,2.00
2022-09-18T02:43:52.244Z,1.92
2022-09-18T02:47:17.990Z,2.10
2022-09-18T02:50:40.013Z,2.10
2022-09-18T02:53:46.975Z,2.13
2022-09-18T02:57:11.879Z,2.42
2022-09-18T03:00:18.485Z,2.50
2022-09-18T03:03:20.255Z,2.10
2022-09-18T03:06:22.767Z,2.35
2022-09-18T03:09:25.856Z,2.10
2022-09-18T03:12:27.769Z,2.08
2022-09-18T03:15:29.586Z,2.75
2022-09-18T03:18:31.390Z,2.72
2022-09-18T03:21:33.361Z,2.35
2022-09-18T03:24:35.236Z,2.40
2022-09-18T03:27:37.125Z,2.40
2022-09-18T03:30:38.850Z,2.58
2022-09-18T03:33:40.614Z,2.40
2022-09-18T03:36:42.401Z,2.60
2022-09-18T03:39:44.304Z,2.80
2022-09-18T03:42:46.265Z,2.08
2022-09-18T03:45:47.931Z,2.10
2022-09-18T03:48:51.024Z,2.22
2022-09-18T03:51:52.839Z,2.22
2022-09-18T03:54:55.061Z,2.55
2022-09-18T03:57:57.457Z,1.88
2022-09-18T04:00:59.157Z,2.20
2022-09-18T04:04:01.099Z,2.03
2022-09-18T04:07:03.051Z,2.13
2022-09-18T04:10:05.511Z,1.90
2022-09-18T04:13:19.825Z,2.10
2022-09-18T04:16:21.609Z,1.80
2022-09-18T04:19:23.452Z,1.75
2022-09-18T04:22:25.197Z,1.73
2022-09-18T04:25:27.113Z,2.15
2022-09-18T04:28:28.932Z,1.85
2022-09-18T04:31:39.052Z,1.92
2022-09-18T04:34:41.104Z,2.08
2022-09-18T04:37:44.310Z,1.67
2022-09-18T04:40:54.406Z,1.73
2022-09-18T04:43:57.038Z,1.77
2022-09-18T04:46:58.937Z,1.80
2022-09-18T04:50:00.708Z,1.63
2022-09-18T04:53:02.434Z,1.60
2022-09-18T04:56:04.504Z,1.50
2022-09-18T04:59:06.217Z,1.98
2022-09-18T05:02:10.874Z,1.65
2022-09-18T05:05:12.551Z,1.40
2022-09-18T05:08:14.252Z,1.40
2022-09-18T05:11:16.181Z,1.50
2022-09-18T05:14:18.115Z,1.70
2022-09-18T05:17:20.030Z,1.67
2022-09-18T05:20:21.717Z,1.60
2022-09-18T05:23:23.654Z,1.65
2022-09-18T05:26:26.804Z,1.67
2022-09-18T05:29:28.739Z,1.70
2022-09-18T05:32:30.500Z,1.55
2022-09-18T05:35:34.392Z,1.40
2022-09-18T05:38:36.361Z,1.65
2022-09-18T05:41:38.131Z,1.95
2022-09-18T05:44:40.200Z,1.63
2022-09-18T05:47:43.191Z,1.40
2022-09-18T05:50:44.962Z,1.60
2022-09-18T05:53:48.521Z,1.63
2022-09-18T05:56:50.231Z,1.60
2022-09-18T05:59:52.127Z,2.10
2022-09-18T06:02:56.046Z,1.98
2022-09-18T06:05:57.762Z,1.67
2022-09-18T06:08:59.735Z,1.80
2022-09-18T06:12:02.737Z,2.10
2022-09-18T06:15:05.420Z,1.58
2022-09-18T06:18:09.225Z,1.80
2022-09-18T06:21:14.911Z,1.83
2022-09-18T06:24:16.771Z,1.73
2022-09-18T06:27:18.484Z,1.80
2022-09-18T06:30:22.708Z,1.60
2022-09-18T06:33:24.478Z,2.08
2022-09-18T06:36:31.789Z,2.03
2022-09-18T06:39:33.818Z,1.90
2022-09-18T06:42:35.801Z,2.00
2022-09-18T06:45:37.641Z,1.80
2022-09-18T06:48:40.288Z,1.90
2022-09-18T06:51:42.264Z,2.10
2022-09-18T06:54:43.991Z,2.20
2022-09-18T06:57:56.059Z,2.00
2022-09-18T07:00:59.751Z,2.40
2022-09-18T07:04:01.798Z,1.88
2022-09-18T07:07:03.580Z,1.85
2022-09-18T07:10:08.994Z,2.40
2022-09-18T07:13:11.024Z,1.70
2022-09-18T07:16:13.608Z,1.85
2022-09-18T07:19:15.357Z,1.97
2022-09-18T07:22:17.127Z,2.03
2022-09-18T07:25:22.488Z,1.80
2022-09-18T07:28:24.248Z,2.20
2022-09-18T07:31:26.369Z,1.85
2022-09-18T07:34:28.636Z,1.77
2022-09-18T07:37:30.564Z,2.03
2022-09-18T07:40:33.207Z,1.80
2022-09-18T07:43:34.925Z,2.10
2022-09-18T07:46:37.356Z,2.03
2022-09-18T07:49:39.176Z,2.20
2022-09-18T07:52:49.059Z,2.17
2022-09-18T07:55:52.765Z,2.20
2022-09-18T07:58:54.527Z,2.30
2022-09-18T08:01:57.006Z,2.20
2022-09-18T08:04:59.062Z,1.93
2022-09-18T08:08:08.932Z,2.15
2022-09-18T08:11:10.950Z,1.90
2022-09-18T08:14:12.756Z,2.00
2022-09-18T08:17:14.461Z,1.92
2022-09-18T08:20:16.299Z,1.83
2022-09-18T08:23:18.043Z,2.92
2022-09-18T08:26:22.282Z,2.67
2022-09-18T08:29:24.493Z,2.05
2022-09-18T08:32:26.186Z,1.77
2022-09-18T08:35:31.870Z,1.85
2022-09-18T08:38:34.273Z,1.75
2022-09-18T08:41:50.294Z,1.80
2022-09-18T08:45:03.314Z,1.77
2022-09-18T08:48:19.369Z,1.77
2022-09-18T08:51:33.869Z,1.73
2022-09-18T08:54:59.372Z,2.40
2022-09-18T08:58:12.968Z,2.45
2022-09-18T09:01:19.660Z,2.67
2022-09-18T09:04:28.485Z,2.47
2022-09-18T09:08:10.668Z,2.33
2022-09-18T09:11:34.687Z,1.98
2022-09-18T09:14:57.431Z,2.33
2022-09-18T09:18:20.785Z,2.10
2022-09-18T09:21:29.803Z,1.70
2022-09-18T09:24:33.752Z,2.00
2022-09-18T09:27:43.783Z,1.92
2022-09-18T09:30:52.018Z,2.53
2022-09-18T09:34:02.679Z,2.10
2022-09-18T09:37:11.719Z,2.00
2022-09-18T09:40:34.257Z,2.00
2022-09-18T09:43:48.031Z,2.00
2022-09-18T09:50:16.624Z,2.15
2022-09-18T09:53:19.933Z,1.90
2022-09-18T09:56:51.487Z,2.05
2022-09-18T09:59:59.687Z,2.10
2022-09-18T10:03:44.585Z,2.20
2022-09-18T10:06:59.373Z,1.98
2022-09-18T10:10:16.221Z,2.42
2022-09-18T10:13:38.970Z,2.42
2022-09-18T10:16:45.628Z,2.17
2022-09-18T10:19:48.730Z,2.40
2022-09-18T10:22:51.010Z,2.55
2022-09-18T10:25:58.387Z,2.38
2022-09-18T10:29:00.475Z,2.72
2022-09-18T10:32:02.583Z,2.45
2022-09-18T10:35:29.395Z,2.30
2022-09-18T10:38:33.879Z,2.47
2022-09-18T10:41:38.857Z,2.03
2022-09-18T10:44:43.227Z,2.63
2022-09-18T10:47:46.457Z,2.08
2022-09-18T10:51:00.526Z,2.72
2022-09-18T10:54:14.943Z,2.20
2022-09-18T10:57:31.739Z,2.35
2022-09-18T11:00:38.271Z,2.60
2022-09-18T11:04:05.576Z,2.30
2022-09-18T11:07:11.169Z,2.30
2022-09-18T11:10:18.793Z,2.17
2022-09-18T11:13:24.491Z,2.67
2022-09-18T11:16:30.512Z,1.83
2022-09-18T11:19:35.112Z,2.08
2022-09-18T11:22:42.560Z,2.00
2022-09-18T11:25:45.865Z,1.73
2022-09-18T11:29:17.803Z,1.98
2022-09-18T11:32:26.915Z,1.95
2022-09-18T11:35:31.641Z,1.45
2022-09-18T11:38:40.192Z,2.10
2022-09-18T11:41:42.292Z,1.60
2022-09-18T11:44:46.115Z,2.03
2022-09-18T11:47:55.871Z,2.20
2022-09-18T11:51:02.652Z,2.08
2022-09-18T11:54:12.808Z,1.80
2022-09-18T11:57:25.161Z,1.63
2022-09-18T12:00:32.490Z,1.75
2022-09-18T12:03:56.138Z,1.80
2022-09-18T12:07:10.296Z,1.42
2022-09-18T12:10:26.512Z,2.15
2022-09-18T12:13:36.810Z,2.03
2022-09-18T12:17:00.771Z,1.90
2022-09-18T12:20:09.375Z,1.77
2022-09-18T12:23:14.868Z,1.75
2022-09-18T12:26:34.811Z,1.70
2022-09-18T12:29:49.253Z,1.80
2022-09-18T12:33:13.388Z,1.73
2022-09-18T12:36:45.592Z,1.67
2022-09-18T12:40:15.801Z,1.55
2022-09-18T12:43:45.028Z,1.70
2022-09-18T12:47:04.576Z,1.80
2022-09-18T12:50:12.346Z,2.03
2022-09-18T12:53:22.943Z,2.00
2022-09-18T12:56:43.833Z,1.83
2022-09-18T13:00:24.441Z,1.80
2022-09-18T13:03:33.296Z,2.05
2022-09-18T13:06:45.655Z,1.80
2022-09-18T13:09:58.722Z,2.20
2022-09-18T13:13:04.362Z,1.85
2022-09-18T13:16:12.601Z,1.80
2022-09-18T13:19:20.892Z,2.42
2022-09-18T13:22:26.416Z,1.98
2022-09-18T13:25:39.693Z,2.25
2022-09-18T13:28:43.319Z,2.28
2022-09-18T13:31:53.884Z,2.20
2022-09-18T13:35:01.919Z,2.58
2022-09-18T13:38:26.144Z,2.28
2022-09-18T13:41:29.210Z,2.60
2022-09-18T13:44:40.318Z,2.40
2022-09-18T13:48:00.996Z,2.30
2022-09-18T13:51:06.107Z,3.78
2022-09-18T13:54:18.853Z,2.92
2022-09-18T13:57:21.335Z,4.72
2022-09-18T14:00:24.139Z,4.03
2022-09-18T14:03:27.835Z,3.33
2022-09-18T14:06:36.167Z,3.63
2022-09-18T14:09:58.928Z,3.30
2022-09-18T14:13:26.375Z,3.15
2022-09-18T14:16:33.074Z,3.25
2022-09-18T14:19:37.020Z,3.42
2022-09-18T14:22:40.891Z,3.42
2022-09-18T14:25:50.145Z,3.30
2022-09-18T14:28:51.914Z,2.97
2022-09-18T14:31:56.427Z,2.95
2022-09-18T14:35:33.779Z,3.00
2022-09-18T14:38:37.916Z,2.35
2022-09-18T14:41:39.786Z,2.00
2022-09-18T14:44:49.251Z,1.80
2022-09-18T14:47:51.531Z,1.60
2022-09-18T14:51:04.536Z,1.70
2022-09-18T14:54:21.923Z,1.55
2022-09-18T14:57:28.141Z,1.30
2022-09-18T15:00:32.578Z,1.50
2022-09-18T15:03:39.629Z,2.45
2022-09-18T15:06:49.852Z,2.50
2022-09-18T15:09:55.641Z,2.65
2022-09-18T15:12:58.706Z,2.58
2022-09-18T15:16:04.420Z,1.80
2022-09-18T15:19:17.488Z,1.80
2022-09-18T15:22:22.736Z,1.92
2022-09-18T15:25:31.902Z,1.55
2022-09-18T15:28:36.168Z,1.60
2022-09-18T15:31:37.993Z,2.45
2022-09-18T15:34:46.182Z,1.40
2022-09-18T15:38:02.666Z,1.75
2022-09-18T15:41:30.231Z,1.40
2022-09-18T15:44:35.280Z,1.55
2022-09-18T15:47:41.679Z,1.30
2022-09-18T15:50:43.612Z,1.05
2022-09-18T15:54:14.765Z,1.40
2022-09-18T15:57:16.781Z,1.27
2022-09-18T16:00:20.323Z,1.10
2022-09-18T16:03:22.351Z,1.30
2022-09-18T16:06:29.622Z,1.00
2022-09-18T16:09:36.002Z,0.70
2022-09-18T16:12:39.856Z,1.00
2022-09-18T16:15:47.636Z,1.00
2022-09-18T16:18:56.063Z,0.93
2022-09-18T16:22:06.818Z,1.00
2022-09-18T16:25:23.926Z,1.00
2022-09-18T16:28:27.517Z,0.90
2022-09-18T16:31:35.005Z,0.80
2022-09-18T16:34:36.969Z,0.80
2022-09-18T16:37:40.516Z,1.08
2022-09-18T16:40:43.590Z,0.88
2022-09-18T16:43:45.343Z,0.95
2022-09-18T16:46:53.893Z,1.40
2022-09-18T16:49:55.895Z,0.80
2022-09-18T16:53:01.385Z,0.80
2022-09-18T16:56:08.127Z,1.17
2022-09-18T16:59:10.341Z,1.02
2022-09-18T17:02:14.675Z,1.10
2022-09-18T17:05:16.854Z,1.00
2022-09-18T17:08:19.126Z,1.02
2022-09-18T17:11:22.037Z,1.23
2022-09-18T17:14:24.830Z,1.30
2022-09-18T17:17:26.556Z,1.10
2022-09-18T17:20:28.294Z,1.40
2022-09-18T17:23:30.707Z,1.27
2022-09-18T17:26:34.678Z,1.17
2022-09-18T17:29:39.869Z,1.70
2022-09-18T17:32:42.276Z,1.67
2022-09-18T17:35:44.255Z,1.95
2022-09-18T17:38:47.345Z,1.60
2022-09-18T17:41:50.192Z,1.80
2022-09-18T17:44:51.990Z,1.80
2022-09-18T17:47:54.915Z,1.73
2022-09-18T17:51:11.969Z,1.27
2022-09-18T17:54:13.788Z,1.27
2022-09-18T17:57:15.713Z,1.60
2022-09-18T18:00:17.442Z,1.02
2022-09-18T18:03:19.566Z,1.33
2022-09-18T18:06:21.978Z,1.13
2022-09-18T18:09:24.442Z,1.50
2022-09-18T18:12:26.620Z,1.42
2022-09-18T18:15:29.181Z,1.63
2022-09-18T18:18:31.188Z,1.20
2022-09-18T18:21:34.719Z,1.75
2022-09-18T18:24:36.587Z,1.95
2022-09-18T18:27:38.456Z,1.63
2022-09-18T18:30:47.754Z,1.58
2022-09-18T18:33:49.517Z,1.67
2022-09-18T18:36:52.811Z,1.35
2022-09-18T18:39:54.497Z,1.08
2022-09-18T18:42:57.206Z,1.98
2022-09-18T18:45:58.866Z,1.13
2022-09-18T18:49:03.769Z,1.48
2022-09-18T18:52:07.509Z,1.67
2022-09-18T18:55:09.964Z,2.25
2022-09-18T18:58:11.635Z,2.10
2022-09-18T19:01:16.902Z,2.63
2022-09-18T19:04:19.236Z,2.10
2022-09-18T19:07:21.202Z,2.60
2022-09-18T19:10:25.168Z,2.38
2022-09-18T19:13:28.724Z,1.50
2022-09-18T19:16:32.138Z,0.88
2022-09-18T19:22:36.023Z,0.80
2022-09-18T19:25:37.789Z,1.02
2022-09-18T19:28:39.521Z,1.20
2022-09-18T19:31:43.186Z,1.55
2022-09-18T19:34:45.150Z,1.67
2022-09-18T19:37:46.935Z,0.98
2022-09-18T19:40:51.559Z,0.73
2022-09-18T19:43:54.148Z,0.93
2022-09-18T19:47:00.004Z,1.00
2022-09-18T19:50:03.768Z,1.13
2022-09-18T19:53:06.130Z,1.30
2022-09-18T19:56:27.540Z,1.13
2022-09-18T19:59:32.105Z,1.13
2022-09-18T20:02:33.800Z,1.27
2022-09-18T20:05:39.457Z,1.25
2022-09-18T20:08:41.517Z,1.45
2022-09-18T20:11:47.583Z,1.10
2022-09-18T20:14:50.770Z,1.60
2022-09-18T20:17:52.700Z,1.40
2022-09-18T20:20:54.718Z,1.33
2022-09-18T20:23:58.209Z,1.30
2022-09-18T20:30:04.578Z,1.42
2022-09-18T20:33:06.977Z,1.40
2022-09-18T20:36:11.380Z,1.70
2022-09-18T20:39:13.093Z,1.52
2022-09-18T20:42:14.845Z,1.17
2022-09-18T20:45:17.008Z,1.20
2022-09-18T20:48:23.067Z,1.30
2022-09-18T20:51:30.194Z,1.33
2022-09-18T20:54:32.747Z,1.40
2022-09-18T20:57:38.113Z,1.47
2022-09-18T21:00:39.868Z,1.70
2022-09-18T21:03:43.948Z,1.90
2022-09-18T21:06:56.091Z,1.65
2022-09-18T21:09:58.401Z,1.65
2022-09-18T21:13:01.236Z,1.60
2022-09-18T21:16:02.930Z,1.17
2022-09-18T21:19:05.056Z,1.20
2022-09-18T21:22:07.011Z,1.60
2022-09-18T21:25:09.157Z,1.42
2022-09-18T21:28:11.223Z,1.45
2022-09-18T21:31:13.075Z,1.70
2022-09-18T21:34:24.297Z,1.80
2022-09-18T21:37:26.134Z,1.58
2022-09-18T21:40:28.436Z,2.33
2022-09-18T21:43:31.942Z,1.75
2022-09-18T21:49:39.688Z,1.83
2022-09-18T21:52:44.723Z,1.60
2022-09-18T21:55:48.830Z,1.77
2022-09-18T21:58:54.135Z,1.45
2022-09-18T22:01:56.686Z,1.77
2022-09-18T22:05:01.130Z,1.80
2022-09-18T22:08:02.993Z,1.40
2022-09-18T22:11:05.933Z,1.30
2022-09-18T22:14:10.997Z,1.70
2022-09-18T22:17:12.676Z,1.58
2022-09-18T22:20:14.438Z,1.95
2022-09-18T22:23:16.127Z,1.38
2022-09-18T22:26:18.167Z,1.60
2022-09-18T22:29:26.266Z,1.42
2022-09-18T22:32:28.205Z,1.90
2022-09-18T22:35:29.948Z,1.63
2022-09-18T22:38:32.431Z,1.40
2022-09-18T22:41:37.797Z,2.07
2022-09-18T22:44:39.833Z,1.65
2022-09-18T22:47:41.586Z,2.45
2022-09-18T22:50:44.046Z,2.30
2022-09-18T22:53:51.772Z,2.05
2022-09-18T22:56:55.191Z,2.45
2022-09-18T23:02:58.698Z,2.58
2022-09-18T23:06:01.600Z,2.80
2022-09-18T23:09:04.611Z,3.00
2022-09-18T23:12:07.096Z,2.45
2022-09-18T23:15:09.637Z,3.35
2022-09-18T23:18:11.791Z,2.80
2022-09-18T23:21:13.727Z,3.80
2022-09-18T23:24:16.717Z,3.08
2022-09-18T23:27:18.412Z,3.53
2022-09-18T23:30:21.168Z,3.35
2022-09-18T23:33:23.158Z,3.10
2022-09-18T23:36:26.183Z,2.83
2022-09-18T23:39:30.829Z,3.50
2022-09-18T23:42:32.489Z,2.53
2022-09-18T23:45:34.780Z,3.15
2022-09-18T23:48:36.802Z,2.58
2022-09-18T23:51:43.893Z,2.50
2022-09-18T23:54:45.831Z,2.45
2022-09-18T23:57:47.499Z,2.67
